Pearl Of Scandinavia — OWFU2 — position and weather

sailwx.info

Track history (hours):
 
Tides and Currents Weather Stations Pressure Air Temp Water Temp Dewpoint Dewpoint Depression Visibility Wind Speed Wind Dir Waves Ship Positions

Pearl Of Scandinavia

Last reported at 2017-Apr-28 00:29 UTC. Time now 2017-Apr-28 00:42 UTC.
Position N 58°07' E 011°02'.

Length 176.4 m; beam 34 m; draft 6.215 m.

Type: Ship. MMSI: 219945000.

Date/timePositionNaut miles runAvg speedWind from/ knotsBaromVisibWave heightAir tempDewpointWater temp
2017-Apr-28 00:29N 58°07' E 011°02'816.8
2017-Apr-28 00:00N 57°59' E 011°06'816.7
2017-Apr-27 23:31N 57°52' E 011°10'816.4
2017-Apr-27 23:00N 57°44' E 011°17'816.3
2017-Apr-27 22:30N 57°36' E 011°22'816.3
2017-Apr-27 21:59N 57°29' E 011°28'816.1
2017-Apr-27 21:30N 57°21' E 011°33'815.9
2017-Apr-27 21:00N 57°14' E 011°37'816.1
2017-Apr-27 20:30N 57°06' E 011°41'6215.7
2017-Apr-27 16:35N 56°10' E 012°30'115.5
2017-Apr-27 16:30N 56°09' E 012°31'816.4
2017-Apr-27 16:01N 56°03' E 012°40'816.4
2017-Apr-27 15:30N 55°55' E 012°44'815.7
2017-Apr-27 15:01N 55°47' E 012°42'6 6.1
2017-Apr-27 14:00N 55°42' E 012°36'0 0.0
2017-Apr-27 13:29N 55°42' E 012°36'0 0.0
2017-Apr-27 12:59N 55°42' E 012°36'0 0.0
2017-Apr-27 12:29N 55°42' E 012°36'0 0.0
2017-Apr-27 11:59N 55°42' E 012°36'0 0.0
2017-Apr-27 11:29N 55°42' E 012°36'0 0.0
2017-Apr-27 10:59N 55°42' E 012°36'0 0.0
2017-Apr-27 10:29N 55°42' E 012°36'0 0.0
2017-Apr-27 09:59N 55°42' E 012°36'0 0.0
2017-Apr-27 09:29N 55°42' E 012°36'0 0.0
2017-Apr-27 08:59N 55°42' E 012°36'0 0.0
2017-Apr-27 08:29N 55°42' E 012°36'0 0.0
2017-Apr-27 07:59N 55°42' E 012°36'0 0.8
2017-Apr-27 07:31N 55°42' E 012°36'510.0
2017-Apr-27 07:00N 55°46' E 012°41'714.5
2017-Apr-27 06:30N 55°54' E 012°40'815.0
2017-Apr-27 06:00N 56°01' E 012°40'815.0
2017-Apr-27 05:30N 56°07' E 012°31'815.9
2017-Apr-27 05:00N 56°14' E 012°26'6316.3
2017-Apr-27 01:08N 57°15' E 011°51'316.4
2017-Apr-27 00:57N 57°17' E 011°48'716.4
2017-Apr-27 00:30N 57°23' E 011°41'816.8
2017-Apr-27 00:00N 57°30' E 011°33'816.8
2017-Apr-26 23:31N 57°38' E 011°27'816.7
2017-Apr-26 23:00N 57°46' E 011°21'816.6
2017-Apr-26 22:30N 57°54' E 011°15'816.9
2017-Apr-26 22:00N 58°01' E 011°09'816.6
2017-Apr-26 21:30N 58°09' E 011°04'816.6
2017-Apr-26 21:00N 58°18' E 011°01'816.3
2017-Apr-26 20:30N 58°25' E 010°57'816.2
2017-Apr-26 20:00N 58°33' E 010°52'816.1
2017-Apr-26 19:30N 58°41' E 010°48'816.3
2017-Apr-26 19:00N 58°49' E 010°45'816.8
2017-Apr-26 18:30N 58°57' E 010°42'917.1
2017-Apr-26 18:00N 59°05' E 010°40'917.4
2017-Apr-26 17:30N 59°14' E 010°37'917.3
2017-Apr-26 17:00N 59°23' E 010°34'816.9
2017-Apr-26 16:30N 59°31' E 010°35'816.0
2017-Apr-26 16:00N 59°39' E 010°37'714.3
2017-Apr-26 15:30N 59°46' E 010°33'815.3
2017-Apr-26 15:01N 59°53' E 010°39'3 6.0
2017-Apr-26 14:30N 59°54' E 010°45'0 0.0
2017-Apr-26 13:26N 59°54' E 010°45'0 0.0
2017-Apr-26 12:56N 59°54' E 010°45'0 0.0
2017-Apr-26 12:26N 59°54' E 010°45'0 0.0
2017-Apr-26 11:56N 59°54' E 010°45'0 0.0
2017-Apr-26 11:26N 59°54' E 010°45'0 0.0
2017-Apr-26 10:56N 59°54' E 010°45'0 0.0
2017-Apr-26 10:26N 59°54' E 010°45'0 0.0
2017-Apr-26 09:56N 59°54' E 010°45'0 0.0
2017-Apr-26 09:26N 59°54' E 010°45'0 0.0
2017-Apr-26 08:56N 59°54' E 010°45'0 0.0
2017-Apr-26 08:26N 59°54' E 010°45'0 0.0
2017-Apr-26 07:56N 59°54' E 010°45'1 1.6
2017-Apr-26 07:30N 59°54' E 010°43'714.4
2017-Apr-26 07:00N 59°48' E 010°35'714.1
2017-Apr-26 06:30N 59°41' E 010°36'613.0
2017-Apr-26 06:01N 59°35' E 010°38'816.2
2017-Apr-26 05:30N 59°27' E 010°34'816.0
2017-Apr-26 05:00N 59°19' E 010°36'815.3
2017-Apr-26 04:30N 59°11' E 010°39'815.3
2017-Apr-26 04:01N 59°04' E 010°41'815.9
2017-Apr-26 03:31N 58°56' E 010°44'815.9
2017-Apr-26 03:00N 58°48' E 010°46'816.0
2017-Apr-26 02:30N 58°40' E 010°49'816.2
2017-Apr-26 02:00N 58°32' E 010°51'816.2
2017-Apr-26 01:30N 58°25' E 010°55'816.4
2017-Apr-26 01:00N 58°17' E 011°00'1116.7
2017-Apr-26 00:21N 58°06' E 011°06'616.4
2017-Apr-26 00:00N 58°01' E 011°09'816.1
2017-Apr-25 23:30N 57°53' E 011°14'816.2
2017-Apr-25 23:00N 57°45' E 011°18'816.2
2017-Apr-25 22:31N 57°38' E 011°23'816.0
2017-Apr-25 22:00N 57°30' E 011°27'816.1
2017-Apr-25 21:30N 57°22' E 011°32'815.9
2017-Apr-25 21:00N 57°15' E 011°36'816.0
2017-Apr-25 20:30N 57°07' E 011°41'6216.1
2017-Apr-25 16:40N 56°12' E 012°29'215.7
2017-Apr-25 16:30N 56°09' E 012°31'815.4
2017-Apr-25 16:00N 56°03' E 012°39'815.5
2017-Apr-25 15:30N 55°56' E 012°44'815.2
2017-Apr-25 15:00N 55°48' E 012°43'713.4
2017-Apr-25 14:30N 55°43' E 012°37'1 0.6
2017-Apr-25 13:29N 55°42' E 012°36'0 0.0
2017-Apr-25 12:59N 55°42' E 012°36'0 0.0
2017-Apr-25 12:29N 55°42' E 012°36'0 0.0
2017-Apr-25 11:59N 55°42' E 012°36'0 0.0
2017-Apr-25 11:29N 55°42' E 012°36'0 0.0
2017-Apr-25 10:59N 55°42' E 012°36'0 0.0
2017-Apr-25 10:29N 55°42' E 012°36'0 0.0
2017-Apr-25 09:59N 55°42' E 012°36'0 0.0
2017-Apr-25 09:29N 55°42' E 012°36'0 0.0
2017-Apr-25 08:59N 55°42' E 012°36'0 0.0
2017-Apr-25 08:29N 55°42' E 012°36'0 0.0
2017-Apr-25 07:59N 55°42' E 012°36'0 0.7
2017-Apr-25 07:30N 55°42' E 012°36'510.1
2017-Apr-25 07:01N 55°47' E 012°41'713.2
2017-Apr-25 06:31N 55°53' E 012°40'714.8
2017-Apr-25 06:01N 56°01' E 012°40'816.5
2017-Apr-25 05:31N 56°07' E 012°31'915.7
2017-Apr-25 04:56N 56°15' E 012°25'6016.0
2017-Apr-25 01:12N 57°13' E 011°54'415.6
2017-Apr-25 00:57N 57°16' E 011°49'715.7
2017-Apr-25 00:30N 57°21' E 011°41'815.7
2017-Apr-25 00:00N 57°27' E 011°31'815.8
2017-Apr-24 23:30N 57°33' E 011°22'815.7
2017-Apr-24 23:00N 57°39' E 011°12'816.7
2017-Apr-24 22:30N 57°47' E 011°06'917.0
2017-Apr-24 21:58N 57°56' E 011°01'716.4
2017-Apr-24 21:31N 58°03' E 010°56'815.9
2017-Apr-24 21:00N 58°10' E 010°51'815.9
2017-Apr-24 20:28N 58°18' E 010°46'1315.5
2017-Apr-24 19:39N 58°30' E 010°37'215.7
2017-Apr-24 19:30N 58°32' E 010°36'815.5
2017-Apr-24 19:00N 58°40' E 010°33'815.7
2017-Apr-24 18:31N 58°48' E 010°35'816.8
2017-Apr-24 18:01N 58°56' E 010°37'917.7
2017-Apr-24 17:30N 59°05' E 010°38'917.8
2017-Apr-24 17:01N 59°14' E 010°37'917.9
2017-Apr-24 16:31N 59°23' E 010°34'917.7
2017-Apr-24 16:00N 59°31' E 010°35'816.6
2017-Apr-24 15:30N 59°40' E 010°37'815.7
2017-Apr-24 15:01N 59°47' E 010°34'815.6
2017-Apr-24 14:30N 59°54' E 010°42'1 1.1
2017-Apr-24 13:28N 59°54' E 010°45'0 0.0
2017-Apr-24 12:58N 59°54' E 010°45'0 0.0
2017-Apr-24 12:28N 59°54' E 010°45'0 0.0
2017-Apr-24 11:58N 59°54' E 010°45'0 0.0
2017-Apr-24 11:28N 59°54' E 010°45'0 0.0
2017-Apr-24 10:58N 59°54' E 010°45'0 0.0
2017-Apr-24 10:28N 59°54' E 010°45'0 0.0
2017-Apr-24 09:58N 59°54' E 010°45'0 0.0
2017-Apr-24 09:28N 59°54' E 010°45'0 0.0
2017-Apr-24 08:58N 59°54' E 010°45'0 0.0
2017-Apr-24 08:28N 59°54' E 010°45'0 0.0
2017-Apr-24 08:01N 59°54' E 010°45'1 1.9
2017-Apr-24 07:30N 59°54' E 010°43'612.0
2017-Apr-24 07:00N 59°49' E 010°35'714.6
2017-Apr-24 06:30N 59°42' E 010°36'713.8
2017-Apr-24 06:00N 59°35' E 010°38'816.2
2017-Apr-24 05:31N 59°28' E 010°34'816.2
2017-Apr-24 05:00N 59°19' E 010°36'816.5
2017-Apr-24 04:30N 59°11' E 010°39'816.1
2017-Apr-24 04:01N 59°03' E 010°41'816.3
2017-Apr-24 03:30N 58°55' E 010°43'816.2
2017-Apr-24 03:00N 58°47' E 010°45'816.2
2017-Apr-24 02:30N 58°39' E 010°48'816.0
2017-Apr-24 02:00N 58°32' E 010°51'815.9
2017-Apr-24 01:30N 58°24' E 010°56'816.1
2017-Apr-24 01:00N 58°16' E 011°00'916.4
2017-Apr-24 00:27N 58°07' E 011°06'717.0
2017-Apr-24 00:00N 58°00' E 011°10'816.6
2017-Apr-23 23:30N 57°52' E 011°14'816.6
2017-Apr-23 23:00N 57°45' E 011°19'916.3
2017-Apr-23 22:28N 57°36' E 011°24'816.2
2017-Apr-23 22:00N 57°29' E 011°28'816.2
2017-Apr-23 21:30N 57°21' E 011°34'816.3
2017-Apr-23 21:00N 57°14' E 011°38'816.3
2017-Apr-23 20:30N 57°06' E 011°43'6215.9
2017-Apr-23 16:36N 56°09' E 012°31'115.5
2017-Apr-23 16:30N 56°08' E 012°32'715.1
2017-Apr-23 16:00N 56°02' E 012°40'815.5
2017-Apr-23 15:31N 55°55' E 012°44'815.3
2017-Apr-23 15:00N 55°47' E 012°43'6 6.4
2017-Apr-23 14:00N 55°42' E 012°36'0 0.0
2017-Apr-23 13:30N 55°42' E 012°36'0 0.0
2017-Apr-23 13:00N 55°42' E 012°36'0 0.0
2017-Apr-23 12:30N 55°42' E 012°36'0 0.0
2017-Apr-23 12:00N 55°42' E 012°36'0 0.0
2017-Apr-23 11:30N 55°42' E 012°36'0 0.0
2017-Apr-23 11:00N 55°42' E 012°36'0 0.0
2017-Apr-23 10:30N 55°42' E 012°36'0 0.0
2017-Apr-23 10:00N 55°42' E 012°36'0 0.0
2017-Apr-23 09:30N 55°42' E 012°36'0 0.0
2017-Apr-23 09:00N 55°42' E 012°36'0 0.0
2017-Apr-23 08:30N 55°42' E 012°36'0 0.0
2017-Apr-23 08:00N 55°42' E 012°36'0 0.7
2017-Apr-23 07:31N 55°42' E 012°36'510.3
2017-Apr-23 07:00N 55°47' E 012°41'714.2
2017-Apr-23 06:30N 55°54' E 012°40'715.0
2017-Apr-23 06:00N 56°01' E 012°40'815.1
2017-Apr-23 05:30N 56°07' E 012°32'7515.5
2017-Apr-23 00:42N 57°18' E 011°48'415.5
2017-Apr-23 00:27N 57°21' E 011°44'716.1
2017-Apr-23 00:00N 57°27' E 011°38'816.2
2017-Apr-22 23:31N 57°34' E 011°30'816.1
2017-Apr-22 23:00N 57°42' E 011°23'816.3
2017-Apr-22 22:30N 57°49' E 011°17'816.5
2017-Apr-22 22:00N 57°57' E 011°13'816.1
2017-Apr-22 21:29N 58°05' E 011°08'816.0
2017-Apr-22 21:00N 58°12' E 011°04'816.1
2017-Apr-22 20:30N 58°20' E 010°60'816.2
2017-Apr-22 20:00N 58°28' E 010°55'816.0
2017-Apr-22 19:30N 58°36' E 010°51'816.2
2017-Apr-22 19:00N 58°43' E 010°48'816.2
2017-Apr-22 18:30N 58°51' E 010°45'816.7
2017-Apr-22 18:00N 58°59' E 010°42'816.8
2017-Apr-22 17:30N 59°08' E 010°39'917.6
2017-Apr-22 17:00N 59°16' E 010°36'917.7
2017-Apr-22 16:30N 59°25' E 010°33'917.3
2017-Apr-22 16:01N 59°34' E 010°37'815.7
2017-Apr-22 15:30N 59°41' E 010°36'816.7
2017-Apr-22 15:01N 59°50' E 010°34'713.5
2017-Apr-22 14:30N 59°54' E 010°45'0 0.1
2017-Apr-22 13:30N 59°54' E 010°45'0 0.0
2017-Apr-22 13:00N 59°54' E 010°45'0 0.0
2017-Apr-22 12:30N 59°54' E 010°45'0 0.0
2017-Apr-22 12:00N 59°54' E 010°45'0 0.0
2017-Apr-22 11:30N 59°54' E 010°45'0 0.0
2017-Apr-22 11:00N 59°54' E 010°45'0 0.0
2017-Apr-22 10:30N 59°54' E 010°45'0 0.0
2017-Apr-22 10:00N 59°54' E 010°45'0 0.0
2017-Apr-22 09:30N 59°54' E 010°45'0 0.0
2017-Apr-22 09:00N 59°54' E 010°45'0 0.0
2017-Apr-22 08:30N 59°54' E 010°45'0 0.0
2017-Apr-22 08:00N 59°54' E 010°45'1 1.4
2017-Apr-22 07:29N 59°54' E 010°43'714.7
2017-Apr-22 07:00N 59°48' E 010°35'612.9
2017-Apr-22 06:30N 59°42' E 010°36'713.3
2017-Apr-22 06:01N 59°35' E 010°38'816.5
2017-Apr-22 05:31N 59°27' E 010°34'816.5
2017-Apr-22 05:01N 59°19' E 010°36'816.5
2017-Apr-22 04:31N 59°11' E 010°39'918.0
2017-Apr-22 04:01N 59°02' E 010°41'917.8
2017-Apr-22 03:31N 58°53' E 010°43'917.8
2017-Apr-22 03:01N 58°44' E 010°45'918.3
2017-Apr-22 02:31N 58°36' E 010°49'918.5
2017-Apr-22 02:01N 58°27' E 010°54'918.3
2017-Apr-22 01:30N 58°18' E 010°60'1118.1
2017-Apr-22 00:53N 58°07' E 011°06'717.6
2017-Apr-22 00:30N 58°01' E 011°09'916.9
2017-Apr-22 00:00N 57°53' E 011°14'816.0
2017-Apr-21 23:30N 57°45' E 011°18'815.8
2017-Apr-21 23:01N 57°38' E 011°22'816.0
2017-Apr-21 22:30N 57°30' E 011°27'815.4
2017-Apr-21 22:01N 57°23' E 011°31'713.9
2017-Apr-21 21:30N 57°16' E 011°35'714.6
2017-Apr-21 21:00N 57°09' E 011°40'714.8
2017-Apr-21 20:30N 57°02' E 011°44'5915.2
2017-Apr-21 16:37N 56°09' E 012°31'215.5
2017-Apr-21 16:30N 56°08' E 012°32'714.6
2017-Apr-21 16:00N 56°02' E 012°40'815.3
2017-Apr-21 15:30N 55°54' E 012°44'815.6
2017-Apr-21 15:00N 55°47' E 012°42'611.7
2017-Apr-21 14:30N 55°42' E 012°36'0 0.0
2017-Apr-21 13:29N 55°42' E 012°36'0 0.0
2017-Apr-21 12:59N 55°42' E 012°36'0 0.0
2017-Apr-21 12:29N 55°42' E 012°36'0 0.0
2017-Apr-21 11:59N 55°42' E 012°36'0 0.0
2017-Apr-21 11:29N 55°42' E 012°36'0 0.0
2017-Apr-21 10:59N 55°42' E 012°36'0 0.0
2017-Apr-21 10:29N 55°42' E 012°36'0 0.0
2017-Apr-21 09:59N 55°42' E 012°36'0 0.0
2017-Apr-21 09:29N 55°42' E 012°36'0 0.0
2017-Apr-21 08:59N 55°42' E 012°36'0 0.0
2017-Apr-21 08:29N 55°42' E 012°36'0 0.0
2017-Apr-21 07:59N 55°42' E 012°36'0 0.7
2017-Apr-21 07:30N 55°42' E 012°36'510.9
2017-Apr-21 07:01N 55°47' E 012°41'714.1
2017-Apr-21 06:30N 55°54' E 012°40'816.1
2017-Apr-21 06:00N 56°02' E 012°39'816.7
2017-Apr-21 05:30N 56°08' E 012°30'7016.0
2017-Apr-21 01:07N 57°15' E 011°50'416.8
2017-Apr-21 00:53N 57°19' E 011°47'617.0
2017-Apr-21 00:30N 57°24' E 011°41'816.9
2017-Apr-21 00:00N 57°31' E 011°33'917.4
2017-Apr-20 23:30N 57°39' E 011°26'917.3
2017-Apr-20 23:01N 57°47' E 011°19'916.9
2017-Apr-20 22:30N 57°55' E 011°13'816.3
2017-Apr-20 22:00N 58°03' E 011°08'815.7
2017-Apr-20 21:29N 58°11' E 011°05'815.7
2017-Apr-20 21:00N 58°18' E 011°01'815.6
2017-Apr-20 20:30N 58°25' E 010°57'815.8
2017-Apr-20 20:00N 58°33' E 010°52'816.1
2017-Apr-20 19:30N 58°41' E 010°48'816.0
2017-Apr-20 19:00N 58°48' E 010°45'816.1
2017-Apr-20 18:30N 58°56' E 010°43'815.8
2017-Apr-20 18:00N 59°04' E 010°40'815.9
2017-Apr-20 17:30N 59°12' E 010°38'816.2
2017-Apr-20 17:00N 59°20' E 010°35'816.2
2017-Apr-20 16:30N 59°28' E 010°34'816.3
2017-Apr-20 16:00N 59°36' E 010°38'714.5
2017-Apr-20 15:30N 59°43' E 010°34'815.6
2017-Apr-20 15:00N 59°51' E 010°36'6 5.4
2017-Apr-20 13:58N 59°54' E 010°45'0 0.0
2017-Apr-20 13:28N 59°54' E 010°45'0 0.0
2017-Apr-20 12:58N 59°54' E 010°45'0 0.0
2017-Apr-20 12:28N 59°54' E 010°45'0 0.0
2017-Apr-20 11:58N 59°54' E 010°45'0 0.0
2017-Apr-20 11:28N 59°54' E 010°45'0 0.0
2017-Apr-20 10:58N 59°54' E 010°45'0 0.0
2017-Apr-20 10:28N 59°54' E 010°45'0 0.0
2017-Apr-20 09:58N 59°54' E 010°45'0 0.0
2017-Apr-20 09:28N 59°54' E 010°45'0 0.0
2017-Apr-20 08:58N 59°54' E 010°45'0 0.0
2017-Apr-20 08:28N 59°54' E 010°45'0 0.0
2017-Apr-20 07:58N 59°54' E 010°45'0 0.6
2017-Apr-20 07:30N 59°54' E 010°44'612.9
2017-Apr-20 07:00N 59°49' E 010°35'714.2
2017-Apr-20 06:30N 59°42' E 010°36'714.4
2017-Apr-20 06:00N 59°35' E 010°38'815.9
2017-Apr-20 05:30N 59°28' E 010°34'816.2
2017-Apr-20 05:00N 59°20' E 010°36'816.9
2017-Apr-20 04:30N 59°11' E 010°39'816.6
2017-Apr-20 04:00N 59°03' E 010°41'816.1
2017-Apr-20 03:30N 58°55' E 010°43'815.8
2017-Apr-20 03:00N 58°47' E 010°44'816.1
2017-Apr-20 02:30N 58°39' E 010°47'816.0
2017-Apr-20 02:00N 58°32' E 010°52'815.9
2017-Apr-20 01:30N 58°24' E 010°56'816.4
2017-Apr-20 01:00N 58°16' E 011°01'1016.5
2017-Apr-20 00:22N 58°06' E 011°07'616.3
2017-Apr-20 00:00N 58°01' E 011°11'815.7
2017-Apr-19 23:29N 57°53' E 011°15'815.6
2017-Apr-19 23:00N 57°46' E 011°19'815.8
2017-Apr-19 22:30N 57°38' E 011°23'816.1
2017-Apr-19 21:59N 57°30' E 011°27'715.5
2017-Apr-19 21:30N 57°23' E 011°32'815.7
2017-Apr-19 21:00N 57°15' E 011°36'815.6
2017-Apr-19 20:30N 57°08' E 011°41'815.6
2017-Apr-19 20:00N 57°01' E 011°46'5716.2
2017-Apr-19 16:28N 56°09' E 012°31'817.8
2017-Apr-19 16:00N 56°02' E 012°40'816.5
2017-Apr-19 15:30N 55°55' E 012°44'816.2
2017-Apr-19 15:00N 55°47' E 012°42'611.2
2017-Apr-19 14:30N 55°42' E 012°36'0 0.0
2017-Apr-19 13:30N 55°42' E 012°36'0 0.0
2017-Apr-19 13:00N 55°42' E 012°36'0 0.0
2017-Apr-19 12:30N 55°42' E 012°36'0 0.0
2017-Apr-19 12:00N 55°42' E 012°36'0 0.0
2017-Apr-19 11:30N 55°42' E 012°36'0 0.0
2017-Apr-19 11:00N 55°42' E 012°36'0 0.0
2017-Apr-19 10:30N 55°42' E 012°36'0 0.0
2017-Apr-19 10:00N 55°42' E 012°36'0 0.0
2017-Apr-19 09:30N 55°42' E 012°36'0 0.0
2017-Apr-19 09:00N 55°42' E 012°36'0 0.0
2017-Apr-19 08:30N 55°42' E 012°36'0 0.0
2017-Apr-19 08:00N 55°42' E 012°36'0 0.7
2017-Apr-19 07:31N 55°42' E 012°36'611.7
2017-Apr-19 07:00N 55°47' E 012°42'714.8
2017-Apr-19 06:30N 55°55' E 012°39'815.3
2017-Apr-19 06:00N 56°02' E 012°39'713.6
2017-Apr-19 05:30N 56°07' E 012°31'714.4
2017-Apr-19 05:00N 56°14' E 012°26'6416.6
2017-Apr-19 01:08N 57°15' E 011°49'416.8
2017-Apr-19 00:54N 57°18' E 011°45'717.1
2017-Apr-19 00:30N 57°24' E 011°37'816.3
2017-Apr-19 00:01N 57°30' E 011°29'815.6
2017-Apr-18 23:30N 57°38' E 011°23'816.0
2017-Apr-18 23:00N 57°45' E 011°17'816.4
2017-Apr-18 22:31N 57°52' E 011°11'916.8
2017-Apr-18 22:00N 58°00' E 011°04'816.9
2017-Apr-18 21:30N 58°08' E 010°57'816.4
2017-Apr-18 21:00N 58°15' E 010°51'1616.2
2017-Apr-18 20:00N 58°30' E 010°38'816.5
2017-Apr-18 19:31N 58°38' E 010°38'816.5
2017-Apr-18 19:01N 58°46' E 010°38'917.0
2017-Apr-18 18:31N 58°55' E 010°38'816.7
2017-Apr-18 18:00N 59°03' E 010°38'816.9
2017-Apr-18 17:31N 59°12' E 010°38'917.1
2017-Apr-18 17:01N 59°20' E 010°35'917.0
2017-Apr-18 16:30N 59°29' E 010°34'816.9
2017-Apr-18 16:01N 59°37' E 010°37'713.8
2017-Apr-18 15:30N 59°44' E 010°34'714.9
2017-Apr-18 15:00N 59°51' E 010°35'611.3
2017-Apr-18 14:30N 59°54' E 010°45'0 0.0
2017-Apr-18 13:29N 59°54' E 010°45'0 0.0
2017-Apr-18 12:59N 59°54' E 010°45'0 0.0
2017-Apr-18 12:29N 59°54' E 010°45'0 0.0
2017-Apr-18 11:59N 59°54' E 010°45'0 0.0
2017-Apr-18 11:29N 59°54' E 010°45'0 0.0
2017-Apr-18 10:59N 59°54' E 010°45'0 0.0
2017-Apr-18 10:29N 59°54' E 010°45'0 0.0
2017-Apr-18 09:59N 59°54' E 010°45'0 0.0
2017-Apr-18 09:29N 59°54' E 010°45'0 0.0
2017-Apr-18 08:59N 59°54' E 010°45'0 0.0
2017-Apr-18 08:29N 59°54' E 010°45'0 0.0
2017-Apr-18 07:59N 59°54' E 010°45'0 0.9
2017-Apr-18 07:30N 59°54' E 010°44'714.0
2017-Apr-18 07:01N 59°49' E 010°35'815.2
2017-Apr-18 06:30N 59°41' E 010°36'713.7
2017-Apr-18 06:00N 59°35' E 010°38'815.5
2017-Apr-18 05:30N 59°27' E 010°34'815.8
2017-Apr-18 05:00N 59°19' E 010°36'815.6
2017-Apr-18 04:30N 59°12' E 010°39'815.7
2017-Apr-18 04:00N 59°04' E 010°41'815.6
2017-Apr-18 03:30N 58°56' E 010°44'815.6
2017-Apr-18 03:00N 58°48' E 010°45'815.7
2017-Apr-18 02:30N 58°41' E 010°47'816.1
2017-Apr-18 02:00N 58°33' E 010°51'816.5
2017-Apr-18 01:30N 58°25' E 010°55'816.0
2017-Apr-18 01:00N 58°17' E 010°60'  
Track history (hours):
 
Tides and Currents Weather Stations Pressure Air Temp Water Temp Dewpoint Dewpoint Depression Visibility Wind Speed Wind Dir Waves Ship Positions

Pearl Of Scandinavia

Last reported at 2017-Apr-28 00:29 UTC. Time now 2017-Apr-28 00:42 UTC.
Position N 58°07' E 011°02'.

Length 176.4 m; beam 34 m; draft 6.215 m.

Type: Ship. MMSI: 219945000.

Date/timePositionNaut miles runAvg speedWind from/ knotsBaromVisibWave heightAir tempDewpointWater temp
2017-Apr-28 00:29N 58°07' E 011°02'816.8
2017-Apr-28 00:00N 57°59' E 011°06'816.7
2017-Apr-27 23:31N 57°52' E 011°10'816.4
2017-Apr-27 23:00N 57°44' E 011°17'816.3
2017-Apr-27 22:30N 57°36' E 011°22'816.3
2017-Apr-27 21:59N 57°29' E 011°28'816.1
2017-Apr-27 21:30N 57°21' E 011°33'815.9
2017-Apr-27 21:00N 57°14' E 011°37'816.1
2017-Apr-27 20:30N 57°06' E 011°41'6215.7
2017-Apr-27 16:35N 56°10' E 012°30'115.5
2017-Apr-27 16:30N 56°09' E 012°31'816.4
2017-Apr-27 16:01N 56°03' E 012°40'816.4
2017-Apr-27 15:30N 55°55' E 012°44'815.7
2017-Apr-27 15:01N 55°47' E 012°42'6 6.1
2017-Apr-27 14:00N 55°42' E 012°36'0 0.0
2017-Apr-27 13:29N 55°42' E 012°36'0 0.0
2017-Apr-27 12:59N 55°42' E 012°36'0 0.0
2017-Apr-27 12:29N 55°42' E 012°36'0 0.0
2017-Apr-27 11:59N 55°42' E 012°36'0 0.0
2017-Apr-27 11:29N 55°42' E 012°36'0 0.0
2017-Apr-27 10:59N 55°42' E 012°36'0 0.0
2017-Apr-27 10:29N 55°42' E 012°36'0 0.0
2017-Apr-27 09:59N 55°42' E 012°36'0 0.0
2017-Apr-27 09:29N 55°42' E 012°36'0 0.0
2017-Apr-27 08:59N 55°42' E 012°36'0 0.0
2017-Apr-27 08:29N 55°42' E 012°36'0 0.0
2017-Apr-27 07:59N 55°42' E 012°36'0 0.8
2017-Apr-27 07:31N 55°42' E 012°36'510.0
2017-Apr-27 07:00N 55°46' E 012°41'714.5
2017-Apr-27 06:30N 55°54' E 012°40'815.0
2017-Apr-27 06:00N 56°01' E 012°40'815.0
2017-Apr-27 05:30N 56°07' E 012°31'815.9
2017-Apr-27 05:00N 56°14' E 012°26'6316.3
2017-Apr-27 01:08N 57°15' E 011°51'316.4
2017-Apr-27 00:57N 57°17' E 011°48'716.4
2017-Apr-27 00:30N 57°23' E 011°41'816.8
2017-Apr-27 00:00N 57°30' E 011°33'816.8
2017-Apr-26 23:31N 57°38' E 011°27'816.7
2017-Apr-26 23:00N 57°46' E 011°21'816.6
2017-Apr-26 22:30N 57°54' E 011°15'816.9
2017-Apr-26 22:00N 58°01' E 011°09'816.6
2017-Apr-26 21:30N 58°09' E 011°04'816.6
2017-Apr-26 21:00N 58°18' E 011°01'816.3
2017-Apr-26 20:30N 58°25' E 010°57'816.2
2017-Apr-26 20:00N 58°33' E 010°52'816.1
2017-Apr-26 19:30N 58°41' E 010°48'816.3
2017-Apr-26 19:00N 58°49' E 010°45'816.8
2017-Apr-26 18:30N 58°57' E 010°42'917.1
2017-Apr-26 18:00N 59°05' E 010°40'917.4
2017-Apr-26 17:30N 59°14' E 010°37'917.3
2017-Apr-26 17:00N 59°23' E 010°34'816.9
2017-Apr-26 16:30N 59°31' E 010°35'816.0
2017-Apr-26 16:00N 59°39' E 010°37'714.3
2017-Apr-26 15:30N 59°46' E 010°33'815.3
2017-Apr-26 15:01N 59°53' E 010°39'3 6.0
2017-Apr-26 14:30N 59°54' E 010°45'0 0.0
2017-Apr-26 13:26N 59°54' E 010°45'0 0.0
2017-Apr-26 12:56N 59°54' E 010°45'0 0.0
2017-Apr-26 12:26N 59°54' E 010°45'0 0.0
2017-Apr-26 11:56N 59°54' E 010°45'0 0.0
2017-Apr-26 11:26N 59°54' E 010°45'0 0.0
2017-Apr-26 10:56N 59°54' E 010°45'0 0.0
2017-Apr-26 10:26N 59°54' E 010°45'0 0.0
2017-Apr-26 09:56N 59°54' E 010°45'0 0.0
2017-Apr-26 09:26N 59°54' E 010°45'0 0.0
2017-Apr-26 08:56N 59°54' E 010°45'0 0.0
2017-Apr-26 08:26N 59°54' E 010°45'0 0.0
2017-Apr-26 07:56N 59°54' E 010°45'1 1.6
2017-Apr-26 07:30N 59°54' E 010°43'714.4
2017-Apr-26 07:00N 59°48' E 010°35'714.1
2017-Apr-26 06:30N 59°41' E 010°36'613.0
2017-Apr-26 06:01N 59°35' E 010°38'816.2
2017-Apr-26 05:30N 59°27' E 010°34'816.0
2017-Apr-26 05:00N 59°19' E 010°36'815.3
2017-Apr-26 04:30N 59°11' E 010°39'815.3
2017-Apr-26 04:01N 59°04' E 010°41'815.9
2017-Apr-26 03:31N 58°56' E 010°44'815.9
2017-Apr-26 03:00N 58°48' E 010°46'816.0
2017-Apr-26 02:30N 58°40' E 010°49'816.2
2017-Apr-26 02:00N 58°32' E 010°51'816.2
2017-Apr-26 01:30N 58°25' E 010°55'816.4
2017-Apr-26 01:00N 58°17' E 011°00'1116.7
2017-Apr-26 00:21N 58°06' E 011°06'616.4
2017-Apr-26 00:00N 58°01' E 011°09'816.1
2017-Apr-25 23:30N 57°53' E 011°14'816.2
2017-Apr-25 23:00N 57°45' E 011°18'816.2
2017-Apr-25 22:31N 57°38' E 011°23'816.0
2017-Apr-25 22:00N 57°30' E 011°27'816.1
2017-Apr-25 21:30N 57°22' E 011°32'815.9
2017-Apr-25 21:00N 57°15' E 011°36'816.0
2017-Apr-25 20:30N 57°07' E 011°41'6216.1
2017-Apr-25 16:40N 56°12' E 012°29'215.7
2017-Apr-25 16:30N 56°09' E 012°31'815.4
2017-Apr-25 16:00N 56°03' E 012°39'815.5
2017-Apr-25 15:30N 55°56' E 012°44'815.2
2017-Apr-25 15:00N 55°48' E 012°43'713.4
2017-Apr-25 14:30N 55°43' E 012°37'1 0.6
2017-Apr-25 13:29N 55°42' E 012°36'0 0.0
2017-Apr-25 12:59N 55°42' E 012°36'0 0.0
2017-Apr-25 12:29N 55°42' E 012°36'0 0.0
2017-Apr-25 11:59N 55°42' E 012°36'0 0.0
2017-Apr-25 11:29N 55°42' E 012°36'0 0.0
2017-Apr-25 10:59N 55°42' E 012°36'0 0.0
2017-Apr-25 10:29N 55°42' E 012°36'0 0.0
2017-Apr-25 09:59N 55°42' E 012°36'0 0.0
2017-Apr-25 09:29N 55°42' E 012°36'0 0.0
2017-Apr-25 08:59N 55°42' E 012°36'0 0.0
2017-Apr-25 08:29N 55°42' E 012°36'0 0.0
2017-Apr-25 07:59N 55°42' E 012°36'0 0.7
2017-Apr-25 07:30N 55°42' E 012°36'510.1
2017-Apr-25 07:01N 55°47' E 012°41'713.2
2017-Apr-25 06:31N 55°53' E 012°40'714.8
2017-Apr-25 06:01N 56°01' E 012°40'816.5
2017-Apr-25 05:31N 56°07' E 012°31'915.7
2017-Apr-25 04:56N 56°15' E 012°25'6016.0
2017-Apr-25 01:12N 57°13' E 011°54'415.6
2017-Apr-25 00:57N 57°16' E 011°49'715.7
2017-Apr-25 00:30N 57°21' E 011°41'815.7
2017-Apr-25 00:00N 57°27' E 011°31'815.8
2017-Apr-24 23:30N 57°33' E 011°22'815.7
2017-Apr-24 23:00N 57°39' E 011°12'816.7
2017-Apr-24 22:30N 57°47' E 011°06'917.0
2017-Apr-24 21:58N 57°56' E 011°01'716.4
2017-Apr-24 21:31N 58°03' E 010°56'815.9
2017-Apr-24 21:00N 58°10' E 010°51'815.9
2017-Apr-24 20:28N 58°18' E 010°46'1315.5
2017-Apr-24 19:39N 58°30' E 010°37'215.7
2017-Apr-24 19:30N 58°32' E 010°36'815.5
2017-Apr-24 19:00N 58°40' E 010°33'815.7
2017-Apr-24 18:31N 58°48' E 010°35'816.8
2017-Apr-24 18:01N 58°56' E 010°37'917.7
2017-Apr-24 17:30N 59°05' E 010°38'917.8
2017-Apr-24 17:01N 59°14' E 010°37'917.9
2017-Apr-24 16:31N 59°23' E 010°34'917.7
2017-Apr-24 16:00N 59°31' E 010°35'816.6
2017-Apr-24 15:30N 59°40' E 010°37'815.7
2017-Apr-24 15:01N 59°47' E 010°34'815.6
2017-Apr-24 14:30N 59°54' E 010°42'1 1.1
2017-Apr-24 13:28N 59°54' E 010°45'0 0.0
2017-Apr-24 12:58N 59°54' E 010°45'0 0.0
2017-Apr-24 12:28N 59°54' E 010°45'0 0.0
2017-Apr-24 11:58N 59°54' E 010°45'0 0.0
2017-Apr-24 11:28N 59°54' E 010°45'0 0.0
2017-Apr-24 10:58N 59°54' E 010°45'0 0.0
2017-Apr-24 10:28N 59°54' E 010°45'0 0.0
2017-Apr-24 09:58N 59°54' E 010°45'0 0.0
2017-Apr-24 09:28N 59°54' E 010°45'0 0.0
2017-Apr-24 08:58N 59°54' E 010°45'0 0.0
2017-Apr-24 08:28N 59°54' E 010°45'0 0.0
2017-Apr-24 08:01N 59°54' E 010°45'1 1.9
2017-Apr-24 07:30N 59°54' E 010°43'612.0
2017-Apr-24 07:00N 59°49' E 010°35'714.6
2017-Apr-24 06:30N 59°42' E 010°36'713.8
2017-Apr-24 06:00N 59°35' E 010°38'816.2
2017-Apr-24 05:31N 59°28' E 010°34'816.2
2017-Apr-24 05:00N 59°19' E 010°36'816.5
2017-Apr-24 04:30N 59°11' E 010°39'816.1
2017-Apr-24 04:01N 59°03' E 010°41'816.3
2017-Apr-24 03:30N 58°55' E 010°43'816.2
2017-Apr-24 03:00N 58°47' E 010°45'816.2
2017-Apr-24 02:30N 58°39' E 010°48'816.0
2017-Apr-24 02:00N 58°32' E 010°51'815.9
2017-Apr-24 01:30N 58°24' E 010°56'816.1
2017-Apr-24 01:00N 58°16' E 011°00'916.4
2017-Apr-24 00:27N 58°07' E 011°06'717.0
2017-Apr-24 00:00N 58°00' E 011°10'816.6
2017-Apr-23 23:30N 57°52' E 011°14'816.6
2017-Apr-23 23:00N 57°45' E 011°19'916.3
2017-Apr-23 22:28N 57°36' E 011°24'816.2
2017-Apr-23 22:00N 57°29' E 011°28'816.2
2017-Apr-23 21:30N 57°21' E 011°34'816.3
2017-Apr-23 21:00N 57°14' E 011°38'816.3
2017-Apr-23 20:30N 57°06' E 011°43'6215.9
2017-Apr-23 16:36N 56°09' E 012°31'115.5
2017-Apr-23 16:30N 56°08' E 012°32'715.1
2017-Apr-23 16:00N 56°02' E 012°40'815.5
2017-Apr-23 15:31N 55°55' E 012°44'815.3
2017-Apr-23 15:00N 55°47' E 012°43'6 6.4
2017-Apr-23 14:00N 55°42' E 012°36'0 0.0
2017-Apr-23 13:30N 55°42' E 012°36'0 0.0
2017-Apr-23 13:00N 55°42' E 012°36'0 0.0
2017-Apr-23 12:30N 55°42' E 012°36'0 0.0
2017-Apr-23 12:00N 55°42' E 012°36'0 0.0
2017-Apr-23 11:30N 55°42' E 012°36'0 0.0
2017-Apr-23 11:00N 55°42' E 012°36'0 0.0
2017-Apr-23 10:30N 55°42' E 012°36'0 0.0
2017-Apr-23 10:00N 55°42' E 012°36'0 0.0
2017-Apr-23 09:30N 55°42' E 012°36'0 0.0
2017-Apr-23 09:00N 55°42' E 012°36'0 0.0
2017-Apr-23 08:30N 55°42' E 012°36'0 0.0
2017-Apr-23 08:00N 55°42' E 012°36'0 0.7
2017-Apr-23 07:31N 55°42' E 012°36'510.3
2017-Apr-23 07:00N 55°47' E 012°41'714.2
2017-Apr-23 06:30N 55°54' E 012°40'715.0
2017-Apr-23 06:00N 56°01' E 012°40'815.1
2017-Apr-23 05:30N 56°07' E 012°32'7515.5
2017-Apr-23 00:42N 57°18' E 011°48'415.5
2017-Apr-23 00:27N 57°21' E 011°44'716.1
2017-Apr-23 00:00N 57°27' E 011°38'816.2
2017-Apr-22 23:31N 57°34' E 011°30'816.1
2017-Apr-22 23:00N 57°42' E 011°23'816.3
2017-Apr-22 22:30N 57°49' E 011°17'816.5
2017-Apr-22 22:00N 57°57' E 011°13'816.1
2017-Apr-22 21:29N 58°05' E 011°08'816.0
2017-Apr-22 21:00N 58°12' E 011°04'816.1
2017-Apr-22 20:30N 58°20' E 010°60'816.2
2017-Apr-22 20:00N 58°28' E 010°55'816.0
2017-Apr-22 19:30N 58°36' E 010°51'816.2
2017-Apr-22 19:00N 58°43' E 010°48'816.2
2017-Apr-22 18:30N 58°51' E 010°45'816.7
2017-Apr-22 18:00N 58°59' E 010°42'816.8
2017-Apr-22 17:30N 59°08' E 010°39'917.6
2017-Apr-22 17:00N 59°16' E 010°36'917.7
2017-Apr-22 16:30N 59°25' E 010°33'917.3
2017-Apr-22 16:01N 59°34' E 010°37'815.7
2017-Apr-22 15:30N 59°41' E 010°36'816.7
2017-Apr-22 15:01N 59°50' E 010°34'713.5
2017-Apr-22 14:30N 59°54' E 010°45'0 0.1
2017-Apr-22 13:30N 59°54' E 010°45'0 0.0
2017-Apr-22 13:00N 59°54' E 010°45'0 0.0
2017-Apr-22 12:30N 59°54' E 010°45'0 0.0
2017-Apr-22 12:00N 59°54' E 010°45'0 0.0
2017-Apr-22 11:30N 59°54' E 010°45'0 0.0
2017-Apr-22 11:00N 59°54' E 010°45'0 0.0
2017-Apr-22 10:30N 59°54' E 010°45'0 0.0
2017-Apr-22 10:00N 59°54' E 010°45'0 0.0
2017-Apr-22 09:30N 59°54' E 010°45'0 0.0
2017-Apr-22 09:00N 59°54' E 010°45'0 0.0
2017-Apr-22 08:30N 59°54' E 010°45'0 0.0
2017-Apr-22 08:00N 59°54' E 010°45'1 1.4
2017-Apr-22 07:29N 59°54' E 010°43'714.7
2017-Apr-22 07:00N 59°48' E 010°35'612.9
2017-Apr-22 06:30N 59°42' E 010°36'713.3
2017-Apr-22 06:01N 59°35' E 010°38'816.5
2017-Apr-22 05:31N 59°27' E 010°34'816.5
2017-Apr-22 05:01N 59°19' E 010°36'816.5
2017-Apr-22 04:31N 59°11' E 010°39'918.0
2017-Apr-22 04:01N 59°02' E 010°41'917.8
2017-Apr-22 03:31N 58°53' E 010°43'917.8
2017-Apr-22 03:01N 58°44' E 010°45'918.3
2017-Apr-22 02:31N 58°36' E 010°49'918.5
2017-Apr-22 02:01N 58°27' E 010°54'918.3
2017-Apr-22 01:30N 58°18' E 010°60'1118.1
2017-Apr-22 00:53N 58°07' E 011°06'717.6
2017-Apr-22 00:30N 58°01' E 011°09'916.9
2017-Apr-22 00:00N 57°53' E 011°14'816.0
2017-Apr-21 23:30N 57°45' E 011°18'815.8
2017-Apr-21 23:01N 57°38' E 011°22'816.0
2017-Apr-21 22:30N 57°30' E 011°27'815.4
2017-Apr-21 22:01N 57°23' E 011°31'713.9
2017-Apr-21 21:30N 57°16' E 011°35'714.6
2017-Apr-21 21:00N 57°09' E 011°40'714.8
2017-Apr-21 20:30N 57°02' E 011°44'5915.2
2017-Apr-21 16:37N 56°09' E 012°31'215.5
2017-Apr-21 16:30N 56°08' E 012°32'714.6
2017-Apr-21 16:00N 56°02' E 012°40'815.3
2017-Apr-21 15:30N 55°54' E 012°44'815.6
2017-Apr-21 15:00N 55°47' E 012°42'611.7
2017-Apr-21 14:30N 55°42' E 012°36'0 0.0
2017-Apr-21 13:29N 55°42' E 012°36'0 0.0
2017-Apr-21 12:59N 55°42' E 012°36'0 0.0
2017-Apr-21 12:29N 55°42' E 012°36'0 0.0
2017-Apr-21 11:59N 55°42' E 012°36'0 0.0
2017-Apr-21 11:29N 55°42' E 012°36'0 0.0
2017-Apr-21 10:59N 55°42' E 012°36'0 0.0
2017-Apr-21 10:29N 55°42' E 012°36'0 0.0
2017-Apr-21 09:59N 55°42' E 012°36'0 0.0
2017-Apr-21 09:29N 55°42' E 012°36'0 0.0
2017-Apr-21 08:59N 55°42' E 012°36'0 0.0
2017-Apr-21 08:29N 55°42' E 012°36'0 0.0
2017-Apr-21 07:59N 55°42' E 012°36'0 0.7
2017-Apr-21 07:30N 55°42' E 012°36'510.9
2017-Apr-21 07:01N 55°47' E 012°41'714.1
2017-Apr-21 06:30N 55°54' E 012°40'816.1
2017-Apr-21 06:00N 56°02' E 012°39'816.7
2017-Apr-21 05:30N 56°08' E 012°30'7016.0
2017-Apr-21 01:07N 57°15' E 011°50'416.8
2017-Apr-21 00:53N 57°19' E 011°47'617.0
2017-Apr-21 00:30N 57°24' E 011°41'816.9
2017-Apr-21 00:00N 57°31' E 011°33'917.4
2017-Apr-20 23:30N 57°39' E 011°26'917.3
2017-Apr-20 23:01N 57°47' E 011°19'916.9
2017-Apr-20 22:30N 57°55' E 011°13'816.3
2017-Apr-20 22:00N 58°03' E 011°08'815.7
2017-Apr-20 21:29N 58°11' E 011°05'815.7
2017-Apr-20 21:00N 58°18' E 011°01'815.6
2017-Apr-20 20:30N 58°25' E 010°57'815.8
2017-Apr-20 20:00N 58°33' E 010°52'816.1
2017-Apr-20 19:30N 58°41' E 010°48'816.0
2017-Apr-20 19:00N 58°48' E 010°45'816.1
2017-Apr-20 18:30N 58°56' E 010°43'815.8
2017-Apr-20 18:00N 59°04' E 010°40'815.9
2017-Apr-20 17:30N 59°12' E 010°38'816.2
2017-Apr-20 17:00N 59°20' E 010°35'816.2
2017-Apr-20 16:30N 59°28' E 010°34'816.3
2017-Apr-20 16:00N 59°36' E 010°38'714.5
2017-Apr-20 15:30N 59°43' E 010°34'815.6
2017-Apr-20 15:00N 59°51' E 010°36'6 5.4
2017-Apr-20 13:58N 59°54' E 010°45'0 0.0
2017-Apr-20 13:28N 59°54' E 010°45'0 0.0
2017-Apr-20 12:58N 59°54' E 010°45'0 0.0
2017-Apr-20 12:28N 59°54' E 010°45'0 0.0
2017-Apr-20 11:58N 59°54' E 010°45'0 0.0
2017-Apr-20 11:28N 59°54' E 010°45'0 0.0
2017-Apr-20 10:58N 59°54' E 010°45'0 0.0
2017-Apr-20 10:28N 59°54' E 010°45'0 0.0
2017-Apr-20 09:58N 59°54' E 010°45'0 0.0
2017-Apr-20 09:28N 59°54' E 010°45'0 0.0
2017-Apr-20 08:58N 59°54' E 010°45'0 0.0
2017-Apr-20 08:28N 59°54' E 010°45'0 0.0
2017-Apr-20 07:58N 59°54' E 010°45'0 0.6
2017-Apr-20 07:30N 59°54' E 010°44'612.9
2017-Apr-20 07:00N 59°49' E 010°35'714.2
2017-Apr-20 06:30N 59°42' E 010°36'714.4
2017-Apr-20 06:00N 59°35' E 010°38'815.9
2017-Apr-20 05:30N 59°28' E 010°34'816.2
2017-Apr-20 05:00N 59°20' E 010°36'816.9
2017-Apr-20 04:30N 59°11' E 010°39'816.6
2017-Apr-20 04:00N 59°03' E 010°41'816.1
2017-Apr-20 03:30N 58°55' E 010°43'815.8
2017-Apr-20 03:00N 58°47' E 010°44'816.1
2017-Apr-20 02:30N 58°39' E 010°47'816.0
2017-Apr-20 02:00N 58°32' E 010°52'815.9
2017-Apr-20 01:30N 58°24' E 010°56'816.4
2017-Apr-20 01:00N 58°16' E 011°01'1016.5
2017-Apr-20 00:22N 58°06' E 011°07'616.3
2017-Apr-20 00:00N 58°01' E 011°11'815.7
2017-Apr-19 23:29N 57°53' E 011°15'815.6
2017-Apr-19 23:00N 57°46' E 011°19'815.8
2017-Apr-19 22:30N 57°38' E 011°23'816.1
2017-Apr-19 21:59N 57°30' E 011°27'715.5
2017-Apr-19 21:30N 57°23' E 011°32'815.7
2017-Apr-19 21:00N 57°15' E 011°36'815.6
2017-Apr-19 20:30N 57°08' E 011°41'815.6
2017-Apr-19 20:00N 57°01' E 011°46'5716.2
2017-Apr-19 16:28N 56°09' E 012°31'817.8
2017-Apr-19 16:00N 56°02' E 012°40'816.5
2017-Apr-19 15:30N 55°55' E 012°44'816.2
2017-Apr-19 15:00N 55°47' E 012°42'611.2
2017-Apr-19 14:30N 55°42' E 012°36'0 0.0
2017-Apr-19 13:30N 55°42' E 012°36'0 0.0
2017-Apr-19 13:00N 55°42' E 012°36'0 0.0
2017-Apr-19 12:30N 55°42' E 012°36'0 0.0
2017-Apr-19 12:00N 55°42' E 012°36'0 0.0
2017-Apr-19 11:30N 55°42' E 012°36'0 0.0
2017-Apr-19 11:00N 55°42' E 012°36'0 0.0
2017-Apr-19 10:30N 55°42' E 012°36'0 0.0
2017-Apr-19 10:00N 55°42' E 012°36'0 0.0
2017-Apr-19 09:30N 55°42' E 012°36'0 0.0
2017-Apr-19 09:00N 55°42' E 012°36'0 0.0
2017-Apr-19 08:30N 55°42' E 012°36'0 0.0
2017-Apr-19 08:00N 55°42' E 012°36'0 0.7
2017-Apr-19 07:31N 55°42' E 012°36'611.7
2017-Apr-19 07:00N 55°47' E 012°42'714.8
2017-Apr-19 06:30N 55°55' E 012°39'815.3
2017-Apr-19 06:00N 56°02' E 012°39'713.6
2017-Apr-19 05:30N 56°07' E 012°31'714.4
2017-Apr-19 05:00N 56°14' E 012°26'6416.6
2017-Apr-19 01:08N 57°15' E 011°49'416.8
2017-Apr-19 00:54N 57°18' E 011°45'717.1
2017-Apr-19 00:30N 57°24' E 011°37'816.3
2017-Apr-19 00:01N 57°30' E 011°29'815.6
2017-Apr-18 23:30N 57°38' E 011°23'816.0
2017-Apr-18 23:00N 57°45' E 011°17'816.4
2017-Apr-18 22:31N 57°52' E 011°11'916.8
2017-Apr-18 22:00N 58°00' E 011°04'816.9
2017-Apr-18 21:30N 58°08' E 010°57'816.4
2017-Apr-18 21:00N 58°15' E 010°51'1616.2
2017-Apr-18 20:00N 58°30' E 010°38'816.5
2017-Apr-18 19:31N 58°38' E 010°38'816.5
2017-Apr-18 19:01N 58°46' E 010°38'917.0
2017-Apr-18 18:31N 58°55' E 010°38'816.7
2017-Apr-18 18:00N 59°03' E 010°38'816.9
2017-Apr-18 17:31N 59°12' E 010°38'917.1
2017-Apr-18 17:01N 59°20' E 010°35'917.0
2017-Apr-18 16:30N 59°29' E 010°34'816.9
2017-Apr-18 16:01N 59°37' E 010°37'713.8
2017-Apr-18 15:30N 59°44' E 010°34'714.9
2017-Apr-18 15:00N 59°51' E 010°35'611.3
2017-Apr-18 14:30N 59°54' E 010°45'0 0.0
2017-Apr-18 13:29N 59°54' E 010°45'0 0.0
2017-Apr-18 12:59N 59°54' E 010°45'0 0.0
2017-Apr-18 12:29N 59°54' E 010°45'0 0.0
2017-Apr-18 11:59N 59°54' E 010°45'0 0.0
2017-Apr-18 11:29N 59°54' E 010°45'0 0.0
2017-Apr-18 10:59N 59°54' E 010°45'0 0.0
2017-Apr-18 10:29N 59°54' E 010°45'0 0.0
2017-Apr-18 09:59N 59°54' E 010°45'0 0.0
2017-Apr-18 09:29N 59°54' E 010°45'0 0.0
2017-Apr-18 08:59N 59°54' E 010°45'0 0.0
2017-Apr-18 08:29N 59°54' E 010°45'0 0.0
2017-Apr-18 07:59N 59°54' E 010°45'0 0.9
2017-Apr-18 07:30N 59°54' E 010°44'714.0
2017-Apr-18 07:01N 59°49' E 010°35'815.2
2017-Apr-18 06:30N 59°41' E 010°36'713.7
2017-Apr-18 06:00N 59°35' E 010°38'815.5
2017-Apr-18 05:30N 59°27' E 010°34'815.8
2017-Apr-18 05:00N 59°19' E 010°36'815.6
2017-Apr-18 04:30N 59°12' E 010°39'815.7
2017-Apr-18 04:00N 59°04' E 010°41'815.6
2017-Apr-18 03:30N 58°56' E 010°44'815.6
2017-Apr-18 03:00N 58°48' E 010°45'815.7
2017-Apr-18 02:30N 58°41' E 010°47'816.1
2017-Apr-18 02:00N 58°33' E 010°51'816.5
2017-Apr-18 01:30N 58°25' E 010°55'816.0
2017-Apr-18 01:00N 58°17' E 010°60'  

Dump ship's entire track history